Time;durP1;ratioP1;P1;durP2;ratioP2;P2;SDS_P1;SDS_P2;PMS_P1;PMS_P2;Temp;Humidity;BMP_temperature;BMP_pressure;BME280_temperature;BME280_humidity;BME280_pressure;Samples;Min_cycle;Max_cycle;Signal;HPM_P1;HPM_P2
2021/03/03 00:01:14;;;;;;;61.65;25.60;;;8.30;99.90;;;;;;5079878;28;20178;-77
2021/03/03 00:03:39;;;;;;;53.28;24.98;;;8.30;99.90;;;;;;5096864;28;20173;-77
2021/03/03 00:06:05;;;;;;;60.60;27.23;;;8.40;99.90;;;;;;5061926;28;20166;-77
2021/03/03 00:08:30;;;;;;;54.97;26.73;;;8.40;99.90;;;;;;5096476;28;20223;-77
2021/03/03 00:10:56;;;;;;;51.53;25.67;;;8.40;99.90;;;;;;5096266;28;20169;-77
2021/03/03 00:13:22;;;;;;;54.30;24.90;;;8.40;99.90;;;;;;5096637;28;20259;-77
2021/03/03 00:15:47;;;;;;;59.83;28.25;;;8.20;99.90;;;;;;5095269;28;20174;-77
2021/03/03 00:18:13;;;;;;;56.08;28.45;;;8.20;99.90;;;;;;5095588;28;20174;-79
2021/03/03 00:20:38;;;;;;;61.88;29.30;;;8.30;99.90;;;;;;5095787;28;20610;-78
2021/03/03 00:23:04;;;;;;;54.53;28.05;;;8.30;99.90;;;;;;5096122;28;20231;-78
2021/03/03 00:25:30;;;;;;;57.08;28.58;;;8.10;99.90;;;;;;5092876;28;20196;-76
2021/03/03 00:27:55;;;;;;;57.20;27.33;;;8.00;99.90;;;;;;5096437;28;20231;-77
2021/03/03 00:30:21;;;;;;;59.35;27.20;;;8.00;99.90;;;;;;5096634;28;20518;-78
2021/03/03 00:32:47;;;;;;;58.85;26.98;;;8.00;99.90;;;;;;5093305;28;20672;-78
2021/03/03 00:35:13;;;;;;;50.85;27.25;;;8.00;99.90;;;;;;5095159;28;20642;-79
2021/03/03 00:37:39;;;;;;;59.22;27.73;;;8.00;99.90;;;;;;5096048;28;20163;-77
2021/03/03 00:40:07;;;;;;;53.08;27.27;;;8.00;99.90;;;;;;5096019;28;20223;-78
2021/03/03 00:42:33;;;;;;;53.58;27.13;;;8.00;99.90;;;;;;5077398;28;20170;-78
2021/03/03 00:44:58;;;;;;;60.63;26.85;;;8.00;99.90;;;;;;5096023;28;20272;-77
2021/03/03 00:47:24;;;;;;;55.90;27.60;;;8.00;99.90;;;;;;5087361;28;20264;-76
2021/03/03 00:49:49;;;;;;;54.95;27.10;;;8.00;99.90;;;;;;5096002;28;20154;-77
2021/03/03 00:52:15;;;;;;;53.47;27.58;;;8.00;99.90;;;;;;5095528;28;20177;-77
2021/03/03 00:54:41;;;;;;;50.33;25.83;;;7.90;99.90;;;;;;5062191;28;20174;-77
2021/03/03 00:57:06;;;;;;;52.30;25.33;;;7.90;99.90;;;;;;5095661;28;20169;-77
2021/03/03 00:59:32;;;;;;;59.03;25.90;;;7.90;99.90;;;;;;5096170;28;20618;-76
2021/03/03 01:01:58;;;;;;;46.28;25.75;;;8.00;99.90;;;;;;5095763;28;20162;-76
2021/03/03 01:04:23;;;;;;;59.97;27.05;;;8.00;99.90;;;;;;5095649;28;20512;-77
2021/03/03 01:06:49;;;;;;;55.05;26.15;;;8.10;99.90;;;;;;5095706;28;20644;-76
2021/03/03 01:09:14;;;;;;;51.42;27.80;;;8.10;99.90;;;;;;5095670;28;20166;-77
2021/03/03 01:11:40;;;;;;;50.95;26.55;;;8.20;99.90;;;;;;5094521;28;20504;-76
2021/03/03 01:14:06;;;;;;;45.63;25.33;;;8.20;99.90;;;;;;5094265;28;20190;-75
2021/03/03 01:16:31;;;;;;;46.10;25.27;;;8.20;99.90;;;;;;5095789;28;20174;-76
2021/03/03 01:18:57;;;;;;;47.38;26.50;;;8.30;99.90;;;;;;5095370;28;20172;-76
2021/03/03 01:21:22;;;;;;;54.30;28.02;;;8.30;99.90;;;;;;5077223;28;20166;-76
2021/03/03 01:23:48;;;;;;;53.15;26.70;;;8.40;99.90;;;;;;5088007;28;20174;-76
2021/03/03 01:26:14;;;;;;;51.35;27.25;;;8.40;99.90;;;;;;5092324;28;20278;-76
2021/03/03 01:28:40;;;;;;;59.40;27.02;;;8.50;99.90;;;;;;5095350;28;20212;-76
2021/03/03 01:31:05;;;;;;;48.55;25.23;;;8.50;99.90;;;;;;5095220;28;20682;-76
2021/03/03 01:33:31;;;;;;;55.25;27.75;;;8.50;99.90;;;;;;5078677;28;20196;-76
2021/03/03 01:35:57;;;;;;;54.55;24.52;;;8.60;99.90;;;;;;5094862;28;20694;-76
2021/03/03 01:38:23;;;;;;;44.35;24.23;;;8.70;99.90;;;;;;5094773;28;20170;-76
2021/03/03 01:40:50;;;;;;;41.88;23.65;;;8.70;99.90;;;;;;5095055;28;20155;-76
2021/03/03 01:43:16;;;;;;;41.42;22.73;;;8.70;99.90;;;;;;5095332;28;20257;-76
2021/03/03 01:45:42;;;;;;;43.47;24.00;;;8.70;99.90;;;;;;5079391;28;20165;-75
2021/03/03 01:48:09;;;;;;;45.00;23.77;;;8.80;99.90;;;;;;5095156;28;20182;-76
2021/03/03 01:50:37;;;;;;;38.75;24.38;;;8.70;99.90;;;;;;5094768;28;20509;-76
2021/03/03 01:53:05;;;;;;;43.63;23.02;;;8.60;99.90;;;;;;5094447;28;20289;-75
2021/03/03 01:55:30;;;;;;;46.35;24.05;;;8.60;99.90;;;;;;5094519;28;20614;-76
2021/03/03 01:57:56;;;;;;;52.58;24.23;;;8.50;99.90;;;;;;5094106;28;20219;-76
2021/03/03 02:00:22;;;;;;;43.58;24.73;;;8.40;99.90;;;;;;5094753;28;20622;-75
2021/03/03 02:02:48;;;;;;;38.45;23.23;;;8.40;99.90;;;;;;5094689;28;20187;-76
2021/03/03 02:05:14;;;;;;;47.08;23.95;;;8.30;99.90;;;;;;5094500;28;20227;-76
2021/03/03 02:08:03;;;;;;;39.42;23.40;;;8.30;99.90;;;;;;5094203;28;20173;-75
2021/03/03 02:10:41;;;;;;;48.42;24.33;;;8.40;99.90;;;;;;5094213;28;20166;-76
2021/03/03 02:13:32;;;;;;;48.55;25.52;;;8.40;99.90;;;;;;5075981;28;20201;-76
2021/03/03 02:15:59;;;;;;;43.65;24.33;;;8.30;99.90;;;;;;5093515;28;20204;-75
2021/03/03 02:18:28;;;;;;;45.35;23.45;;;8.40;99.90;;;;;;5083722;28;20551;-75
2021/03/03 02:21:01;;;;;;;50.25;25.05;;;8.30;99.90;;;;;;5092888;28;20166;-76
2021/03/03 02:23:51;;;;;;;43.92;24.58;;;8.30;99.90;;;;;;5094310;28;20170;-75
2021/03/03 02:26:20;;;;;;;46.95;25.80;;;8.30;99.90;;;;;;5094291;28;20162;-76
2021/03/03 02:28:47;;;;;;;49.83;26.05;;;8.30;99.90;;;;;;5092032;28;20644;-76
2021/03/03 02:31:14;;;;;;;49.85;25.45;;;8.30;99.90;;;;;;5075694;28;20264;-75
2021/03/03 02:33:42;;;;;;;45.97;24.85;;;8.30;99.90;;;;;;5084575;28;20561;-75
2021/03/03 02:36:09;;;;;;;59.47;26.27;;;8.40;99.90;;;;;;5092868;28;20203;-76
2021/03/03 02:38:39;;;;;;;48.63;24.63;;;8.40;99.90;;;;;;5092599;28;20601;-76
2021/03/03 02:41:05;;;;;;;44.35;24.30;;;8.40;99.90;;;;;;5093505;28;20170;-76
2021/03/03 02:43:31;;;;;;;42.80;25.33;;;8.40;99.90;;;;;;5092489;28;20176;-77
2021/03/03 02:45:57;;;;;;;49.55;25.85;;;8.40;99.90;;;;;;5093695;28;20166;-77
2021/03/03 02:48:23;;;;;;;38.92;22.15;;;8.40;99.90;;;;;;5093609;28;20170;-76
2021/03/03 02:50:49;;;;;;;55.05;25.50;;;8.40;99.90;;;;;;5090564;28;20173;-76
2021/03/03 02:53:14;;;;;;;49.72;26.50;;;8.40;99.90;;;;;;5093643;28;20637;-76
2021/03/03 02:55:41;;;;;;;59.80;29.50;;;8.50;99.90;;;;;;5092366;28;20613;-76
2021/03/03 02:58:07;;;;;;;42.03;25.73;;;8.50;99.90;;;;;;5093439;28;20197;-76
2021/03/03 03:00:40;;;;;;;43.83;22.92;;;8.50;99.90;;;;;;5093258;28;20614;-76
2021/03/03 03:03:33;;;;;;;42.03;23.13;;;8.50;99.90;;;;;;5093763;28;20257;-77
2021/03/03 03:06:20;;;;;;;44.65;23.55;;;8.50;99.90;;;;;;5092363;28;20166;-76
2021/03/03 03:08:47;;;;;;;47.45;26.13;;;8.50;99.90;;;;;;5092222;28;20265;-76
2021/03/03 03:11:24;;;;;;;55.33;25.13;;;8.50;99.90;;;;;;5093033;28;20245;-76
2021/03/03 03:13:52;;;;;;;42.67;25.52;;;8.50;99.90;;;;;;5093391;28;20189;-76
2021/03/03 03:16:17;;;;;;;54.42;26.60;;;8.50;99.90;;;;;;5093522;28;20161;-77
2021/03/03 03:18:50;;;;;;;52.00;25.90;;;8.40;99.90;;;;;;5068569;28;20231;-77
2021/03/03 03:21:16;;;;;;;54.10;25.60;;;8.30;99.90;;;;;;5093329;28;20165;-76
2021/03/03 03:23:45;;;;;;;46.92;25.00;;;8.30;99.90;;;;;;5093255;28;20197;-76
2021/03/03 03:26:12;;;;;;;47.50;25.52;;;8.20;99.90;;;;;;5079456;28;20219;-76
2021/03/03 03:28:39;;;;;;;47.25;25.65;;;8.20;99.90;;;;;;5079654;28;20326;-76
2021/03/03 03:31:10;;;;;;;48.28;22.77;;;8.20;99.90;;;;;;5097464;28;20162;-76
2021/03/03 03:33:36;;;;;;;46.10;25.35;;;8.20;99.90;;;;;;5063631;28;20331;-74
2021/03/03 03:36:04;;;;;;;40.45;23.73;;;8.30;99.90;;;;;;5097433;28;20178;-76
2021/03/03 03:38:32;;;;;;;41.70;23.58;;;8.20;99.90;;;;;;5079405;28;20263;-75
2021/03/03 03:41:04;;;;;;;39.58;22.42;;;8.20;99.90;;;;;;5097226;28;20169;-76
2021/03/03 03:43:31;;;;;;;48.13;22.48;;;8.30;99.90;;;;;;5080349;28;20178;-76
2021/03/03 03:45:58;;;;;;;39.55;22.75;;;8.40;99.90;;;;;;5079259;28;20202;-75
2021/03/03 03:48:24;;;;;;;43.90;24.17;;;8.50;99.90;;;;;;5096746;28;20162;-75
2021/03/03 03:50:51;;;;;;;38.60;22.65;;;8.50;99.90;;;;;;5061920;28;20273;-76
2021/03/03 03:53:17;;;;;;;43.80;22.63;;;8.50;99.90;;;;;;5088057;28;20550;-76
2021/03/03 03:55:43;;;;;;;39.03;22.23;;;8.50;99.90;;;;;;5096890;28;20295;-75
2021/03/03 03:58:09;;;;;;;34.28;21.92;;;8.50;99.90;;;;;;5096946;28;20194;-76
2021/03/03 04:00:35;;;;;;;43.15;24.25;;;8.50;99.90;;;;;;5096549;28;20208;-76
2021/03/03 04:03:01;;;;;;;43.67;24.15;;;8.60;99.90;;;;;;5096805;28;20190;-76
2021/03/03 04:05:27;;;;;;;45.30;24.27;;;8.80;99.90;;;;;;5079895;28;20215;-75
2021/03/03 04:07:54;;;;;;;48.33;26.63;;;8.90;99.90;;;;;;5096602;28;20211;-76
2021/03/03 04:10:23;;;;;;;47.92;26.35;;;8.90;99.90;;;;;;5078525;28;20618;-76
2021/03/03 04:12:49;;;;;;;35.28;20.10;;;8.90;99.90;;;;;;5096714;28;20186;-76
2021/03/03 04:15:16;;;;;;;31.75;18.92;;;8.70;99.90;;;;;;5079714;28;20182;-76
2021/03/03 04:17:42;;;;;;;36.60;20.77;;;8.50;99.90;;;;;;5078279;28;20177;-75
2021/03/03 04:20:10;;;;;;;37.63;21.63;;;8.40;99.90;;;;;;5081973;28;20162;-76
2021/03/03 04:22:36;;;;;;;39.90;21.10;;;8.40;99.90;;;;;;5078506;28;20174;-76
2021/03/03 04:25:03;;;;;;;44.53;22.50;;;8.30;99.90;;;;;;5078132;28;20186;-75
2021/03/03 04:27:29;;;;;;;47.75;24.60;;;8.30;99.90;;;;;;5096430;28;20182;-76
2021/03/03 04:29:55;;;;;;;46.20;25.85;;;8.20;99.90;;;;;;5078010;28;20207;-76
2021/03/03 04:32:20;;;;;;;47.10;26.30;;;8.30;99.90;;;;;;5096412;28;20482;-77
2021/03/03 04:34:46;;;;;;;48.17;26.20;;;8.40;99.90;;;;;;5077937;28;20202;-76
2021/03/03 04:37:11;;;;;;;48.55;28.13;;;8.50;99.90;;;;;;5079223;28;20613;-75
2021/03/03 04:39:37;;;;;;;50.88;27.90;;;8.60;99.90;;;;;;5078151;28;20162;-76
2021/03/03 04:42:03;;;;;;;49.53;31.08;;;8.70;99.90;;;;;;5096370;28;20162;-76
2021/03/03 04:44:30;;;;;;;57.47;27.83;;;8.80;99.90;;;;;;5096100;28;20158;-76
2021/03/03 04:46:55;;;;;;;44.90;25.17;;;8.90;99.90;;;;;;5095940;28;20160;-76
2021/03/03 04:49:21;;;;;;;40.78;25.00;;;9.00;99.90;;;;;;5079942;28;20166;-76
2021/03/03 04:51:47;;;;;;;40.65;24.55;;;9.10;99.90;;;;;;5096005;28;20167;-75
2021/03/03 04:54:12;;;;;;;53.45;27.27;;;9.10;99.90;;;;;;5095705;28;20194;-75
2021/03/03 04:56:38;;;;;;;44.97;27.80;;;9.10;99.90;;;;;;5095812;28;20169;-75
2021/03/03 04:59:03;;;;;;;58.58;30.38;;;9.10;99.90;;;;;;5099515;28;20232;-75
2021/03/03 05:01:32;;;;;;;53.38;27.67;;;9.00;99.90;;;;;;5098099;28;20551;-75
2021/03/03 05:03:57;;;;;;;48.88;24.85;;;8.90;99.90;;;;;;5116176;28;20176;-75
2021/03/03 05:06:23;;;;;;;43.05;23.73;;;8.80;99.90;;;;;;5097674;28;20173;-76
2021/03/03 05:08:48;;;;;;;44.90;23.75;;;8.80;99.90;;;;;;5095469;28;20291;-76
2021/03/03 05:11:14;;;;;;;41.38;23.75;;;8.80;99.90;;;;;;5094436;28;20207;-76
2021/03/03 05:13:40;;;;;;;46.42;24.65;;;8.80;99.90;;;;;;5095288;28;20243;-76
2021/03/03 05:16:07;;;;;;;48.88;26.75;;;8.70;99.90;;;;;;5095916;28;20626;-76
2021/03/03 05:18:32;;;;;;;41.72;27.63;;;8.60;99.90;;;;;;5084352;28;20162;-76
2021/03/03 05:20:58;;;;;;;43.17;27.08;;;8.50;99.90;;;;;;5095197;28;20303;-77
2021/03/03 05:23:29;;;;;;;56.35;30.20;;;8.50;99.90;;;;;;5094046;28;20250;-76
2021/03/03 05:25:55;;;;;;;56.55;29.40;;;8.40;99.90;;;;;;5095080;28;20173;-76
2021/03/03 05:28:21;;;;;;;50.42;30.23;;;8.50;99.90;;;;;;5076520;28;20569;-76
2021/03/03 05:30:48;;;;;;;47.25;27.75;;;8.40;99.90;;;;;;5078235;28;20166;-77
2021/03/03 05:33:22;;;;;;;56.08;27.45;;;8.30;99.90;;;;;;5094918;28;20185;-77
2021/03/03 05:35:48;;;;;;;58.63;28.85;;;8.30;99.90;;;;;;5095168;28;20175;-77
2021/03/03 05:38:13;;;;;;;49.30;27.83;;;8.40;99.90;;;;;;5086470;28;20264;-77
2021/03/03 05:40:39;;;;;;;65.35;29.52;;;8.30;99.90;;;;;;5077618;28;20506;-76
2021/03/03 05:43:06;;;;;;;54.80;30.42;;;8.20;99.90;;;;;;5094912;28;20256;-76
2021/03/03 05:45:32;;;;;;;61.70;29.20;;;8.20;99.90;;;;;;5095018;28;20208;-76
2021/03/03 05:48:00;;;;;;;53.58;27.95;;;8.20;99.90;;;;;;5093598;28;20218;-76
2021/03/03 05:50:26;;;;;;;55.45;29.27;;;8.30;99.90;;;;;;5094914;28;20162;-77
2021/03/03 05:52:53;;;;;;;52.13;29.63;;;8.30;99.90;;;;;;5094313;28;20622;-77
2021/03/03 05:55:19;;;;;;;53.05;29.75;;;8.20;99.90;;;;;;5094674;28;20178;-76
2021/03/03 05:57:46;;;;;;;53.53;28.77;;;8.10;99.90;;;;;;5094575;28;20181;-76
2021/03/03 06:00:14;;;;;;;66.85;31.10;;;8.10;99.90;;;;;;5094697;28;20562;-77
2021/03/03 06:02:41;;;;;;;63.15;31.10;;;8.10;99.90;;;;;;5091372;28;20162;-77
2021/03/03 06:05:09;;;;;;;53.38;30.88;;;8.10;99.90;;;;;;5094399;28;20626;-76
2021/03/03 06:07:36;;;;;;;60.58;30.08;;;8.10;99.90;;;;;;5094753;28;20648;-76
2021/03/03 06:10:05;;;;;;;53.72;30.50;;;8.10;99.90;;;;;;5094077;28;20513;-77
2021/03/03 06:12:31;;;;;;;48.63;28.85;;;8.20;99.90;;;;;;5093127;28;20389;-76
2021/03/03 06:14:57;;;;;;;63.17;29.83;;;8.20;99.90;;;;;;5094614;28;20227;-75
2021/03/03 06:17:22;;;;;;;63.55;30.13;;;8.20;99.90;;;;;;5094049;28;20533;-75
2021/03/03 06:19:49;;;;;;;65.43;30.92;;;8.20;99.90;;;;;;5076336;28;20256;-76
2021/03/03 06:22:25;;;;;;;60.65;29.95;;;8.20;99.90;;;;;;5087580;28;20174;-76
2021/03/03 06:24:54;;;;;;;61.30;30.65;;;8.10;99.90;;;;;;5091291;28;20181;-76
2021/03/03 06:27:25;;;;;;;59.53;30.95;;;8.10;99.90;;;;;;5094245;28;20154;-76
2021/03/03 06:30:09;;;;;;;48.67;28.98;;;8.10;99.90;;;;;;5093783;28;20178;-75
2021/03/03 06:33:10;;;;;;;50.67;27.00;;;8.10;99.90;;;;;;5092641;28;20544;-75
2021/03/03 06:35:47;;;;;;;50.10;27.42;;;8.10;99.90;;;;;;5029953;28;20179;-75
2021/03/03 06:38:15;;;;;;;51.42;29.00;;;8.00;99.90;;;;;;5082888;28;20286;-76
2021/03/03 06:40:55;;;;;;;59.22;29.60;;;8.10;99.90;;;;;;5094100;28;20215;-75
2021/03/03 06:43:23;;;;;;;62.55;31.02;;;8.10;99.90;;;;;;5093661;28;20183;-75
2021/03/03 06:45:49;;;;;;;56.20;28.58;;;8.10;99.90;;;;;;5093643;28;20184;-77
2021/03/03 06:48:33;;;;;;;63.75;30.20;;;8.10;99.90;;;;;;5093452;28;20531;-76
2021/03/03 06:50:59;;;;;;;63.65;29.73;;;8.20;99.90;;;;;;5093662;28;20161;-75
2021/03/03 06:53:32;;;;;;;48.35;27.08;;;8.20;99.90;;;;;;5075582;28;20203;-75
2021/03/03 06:55:57;;;;;;;49.75;28.45;;;8.30;99.90;;;;;;5059787;28;20190;-75
2021/03/03 06:58:24;;;;;;;59.00;28.90;;;8.40;99.90;;;;;;5093507;28;20197;-75
2021/03/03 07:00:51;;;;;;;52.10;25.92;;;8.50;99.90;;;;;;5093572;28;20689;-76
2021/03/03 07:03:26;;;;;;;49.63;25.85;;;8.60;99.90;;;;;;5093463;28;20672;-76
2021/03/03 07:05:52;;;;;;;51.50;27.77;;;8.70;99.90;;;;;;5093100;28;20165;-76
2021/03/03 07:08:18;;;;;;;53.92;28.42;;;8.90;99.90;;;;;;5075298;28;20216;-76
2021/03/03 07:10:45;;;;;;;43.00;26.48;;;9.10;99.90;;;;;;5093637;28;20170;-76
2021/03/03 07:13:10;;;;;;;48.40;28.23;;;9.30;99.90;;;;;;5093518;28;20215;-75
2021/03/03 07:15:36;;;;;;;50.30;26.60;;;9.40;99.90;;;;;;5075700;28;20613;-76
2021/03/03 07:18:02;;;;;;;49.00;25.15;;;9.50;99.90;;;;;;5093061;28;20158;-76
2021/03/03 07:20:28;;;;;;;40.60;24.42;;;9.70;99.90;;;;;;5093276;28;20648;-77
2021/03/03 07:22:57;;;;;;;48.42;25.83;;;10.00;99.90;;;;;;5091991;28;20208;-75
2021/03/03 07:25:23;;;;;;;48.10;26.20;;;10.40;99.90;;;;;;5093331;28;20214;-76
2021/03/03 07:27:49;;;;;;;41.33;25.00;;;10.80;99.90;;;;;;5090288;28;20197;-76
2021/03/03 07:30:21;;;;;;;47.92;24.35;;;11.20;99.90;;;;;;5093390;28;20688;-76
2021/03/03 07:32:48;;;;;;;43.47;26.77;;;11.70;99.90;;;;;;5093197;28;20196;-76
2021/03/03 07:35:14;;;;;;;38.08;23.35;;;12.40;99.90;;;;;;5092016;28;20166;-76
2021/03/03 07:37:53;;;;;;;33.88;20.50;;;13.00;99.90;;;;;;5092927;28;20162;-76
2021/03/03 07:40:23;;;;;;;33.83;21.25;;;13.60;99.90;;;;;;5055174;28;20169;-75
2021/03/03 07:42:53;;;;;;;43.20;23.65;;;14.20;99.90;;;;;;5076174;28;20185;-76
2021/03/03 07:45:20;;;;;;;49.50;24.63;;;14.70;99.90;;;;;;5077883;28;20606;-77
2021/03/03 07:47:50;;;;;;;39.38;21.15;;;15.40;99.90;;;;;;5092970;28;20173;-76
2021/03/03 07:50:20;;;;;;;39.55;20.45;;;16.10;99.90;;;;;;5092734;28;20178;-77
2021/03/03 07:52:50;;;;;;;27.80;20.35;;;16.70;99.90;;;;;;5081824;28;20502;-77
2021/03/03 07:55:16;;;;;;;49.58;19.27;;;17.40;99.90;;;;;;5093157;28;20170;-77
2021/03/03 07:57:46;;;;;;;36.35;19.70;;;18.10;99.90;;;;;;5093077;28;20175;-77
2021/03/03 08:00:14;;;;;;;42.40;20.08;;;18.80;99.90;;;;;;5090134;28;20177;-77
2021/03/03 08:02:48;;;;;;;31.15;19.70;;;19.50;99.90;;;;;;5091628;28;20166;-77
2021/03/03 08:05:27;;;;;;;22.30;16.35;;;20.10;99.90;;;;;;5091764;28;20254;-76
2021/03/03 08:08:08;;;;;;;22.10;14.98;;;20.50;99.90;;;;;;5092957;28;20161;-78
2021/03/03 08:10:38;;;;;;;31.20;16.58;;;20.90;99.90;;;;;;5094019;28;20166;-76
2021/03/03 08:13:30;;;;;;;41.83;20.55;;;21.20;99.90;;;;;;5094193;28;20316;-78
2021/03/03 08:16:03;;;;;;;25.42;16.90;;;21.80;99.90;;;;;;5086920;28;20642;-77
2021/03/03 08:18:51;;;;;;;30.33;18.92;;;22.30;99.90;;;;;;5084899;28;20175;-77
2021/03/03 08:21:17;;;;;;;35.42;19.02;;;23.00;99.90;;;;;;5083590;28;20169;-77
2021/03/03 08:23:50;;;;;;;30.17;19.65;;;23.70;99.90;;;;;;5078490;28;20166;-77
2021/03/03 08:26:16;;;;;;;35.33;20.30;;;24.20;99.90;;;;;;5096611;28;20167;-76
2021/03/03 08:28:46;;;;;;;31.08;19.85;;;24.90;99.90;;;;;;5096413;28;20651;-77
2021/03/03 08:31:15;;;;;;;35.33;20.55;;;25.60;97.40;;;;;;5096095;28;20163;-77
2021/03/03 08:33:45;;;;;;;35.35;20.90;;;26.10;95.70;;;;;;5075854;28;20658;-77
2021/03/03 08:36:17;;;;;;;31.05;18.80;;;26.60;94.20;;;;;;5075136;28;20170;-77
2021/03/03 08:38:47;;;;;;;35.92;21.08;;;27.10;93.10;;;;;;5096540;28;20165;-77
2021/03/03 08:41:16;;;;;;;40.08;22.08;;;27.40;91.30;;;;;;5083872;28;20257;-77
2021/03/03 08:43:43;;;;;;;27.52;19.67;;;27.80;90.40;;;;;;5092769;28;20185;-78
2021/03/03 08:46:21;;;;;;;33.08;20.83;;;28.40;89.70;;;;;;5095885;28;20220;-77
2021/03/03 08:48:53;;;;;;;39.72;21.10;;;28.70;87.70;;;;;;5076591;28;20231;-76
2021/03/03 08:51:31;;;;;;;36.25;19.75;;;29.00;85.90;;;;;;5083752;28;20557;-77
2021/03/03 08:54:18;;;;;;;47.78;21.77;;;29.30;85.00;;;;;;5058779;28;20198;-76
2021/03/03 08:56:48;;;;;;;35.50;19.33;;;29.60;82.40;;;;;;5075103;28;20186;-78
2021/03/03 08:59:32;;;;;;;35.88;20.73;;;29.70;81.90;;;;;;5088551;28;20231;-77
2021/03/03 09:02:18;;;;;;;30.00;21.95;;;30.10;79.60;;;;;;5056783;28;20542;-77
2021/03/03 09:04:56;;;;;;;32.30;18.55;;;30.70;78.50;;;;;;5077064;28;20182;-75
2021/03/03 09:07:25;;;;;;;33.28;19.90;;;31.00;78.00;;;;;;5095634;28;20158;-77
2021/03/03 09:09:56;;;;;;;35.83;20.80;;;31.10;77.00;;;;;;5094936;28;20169;-76
2021/03/03 09:12:25;;;;;;;30.20;19.23;;;31.30;76.60;;;;;;5095400;28;20159;-82
2021/03/03 09:14:53;;;;;;;36.05;19.85;;;31.50;76.10;;;;;;5091884;28;20732;-77
2021/03/03 09:17:27;;;;;;;28.10;17.58;;;31.60;75.20;;;;;;5094745;28;20162;-76
2021/03/03 09:20:00;;;;;;;38.97;22.70;;;32.20;73.80;;;;;;5077921;28;20165;-74
2021/03/03 09:22:29;;;;;;;31.45;19.85;;;32.90;71.30;;;;;;5093778;28;20162;-76
2021/03/03 09:25:03;;;;;;;42.70;21.00;;;33.20;71.20;;;;;;5077795;28;20513;-75
2021/03/03 09:27:29;;;;;;;32.67;17.58;;;32.70;68.90;;;;;;5076537;28;20484;-76
2021/03/03 09:29:56;;;;;;;43.63;22.27;;;32.40;69.90;;;;;;5095030;28;20178;-76
2021/03/03 09:32:23;;;;;;;39.15;21.65;;;32.50;68.10;;;;;;5094409;28;20173;-77
2021/03/03 09:35:06;;;;;;;46.92;23.17;;;32.20;69.20;;;;;;5094628;28;20286;-76
2021/03/03 09:37:38;;;;;;;29.40;20.02;;;32.80;68.50;;;;;;5095074;28;20181;-76
2021/03/03 09:40:06;;;;;;;36.97;18.40;;;33.00;68.80;;;;;;5086131;28;20199;-75
2021/03/03 09:42:44;;;;;;;44.97;19.17;;;32.80;67.80;;;;;;5071414;28;20621;-76
2021/03/03 09:45:15;;;;;;;43.95;19.55;;;33.00;67.60;;;;;;5094447;28;20173;-77
2021/03/03 09:47:41;;;;;;;39.13;20.48;;;32.50;66.40;;;;;;5091657;28;20173;-77
2021/03/03 09:50:18;;;;;;;29.70;19.55;;;32.40;65.50;;;;;;5094273;28;20169;-77
2021/03/03 09:52:46;;;;;;;30.05;19.25;;;31.50;67.90;;;;;;5094446;28;20177;-77
2021/03/03 09:55:14;;;;;;;28.70;19.55;;;31.00;68.80;;;;;;5094570;28;20602;-77
2021/03/03 09:57:48;;;;;;;35.70;20.42;;;30.80;69.60;;;;;;5093569;28;20169;-77
2021/03/03 10:00:17;;;;;;;32.72;21.10;;;30.20;70.70;;;;;;5093233;28;20177;-77
2021/03/03 10:02:50;;;;;;;43.42;21.38;;;29.20;70.90;;;;;;5094186;28;20602;-77
2021/03/03 10:05:28;;;;;;;38.45;21.08;;;28.50;74.70;;;;;;5092250;28;20170;-78
2021/03/03 10:08:00;;;;;;;47.35;20.67;;;28.60;73.80;;;;;;5091631;28;20751;-76
2021/03/03 10:10:29;;;;;;;34.67;19.58;;;28.90;74.90;;;;;;5090328;28;20185;-77
2021/03/03 10:12:54;;;;;;;33.55;21.40;;;29.40;73.20;;;;;;5094407;28;20253;-77
2021/03/03 10:15:37;;;;;;;40.83;20.55;;;30.20;70.90;;;;;;5094274;28;20725;-77
2021/03/03 10:18:10;;;;;;;35.08;20.45;;;30.10;71.60;;;;;;5094090;28;20173;-77
2021/03/03 10:20:55;;;;;;;36.20;19.38;;;30.10;72.40;;;;;;5076171;28;20610;-78
2021/03/03 10:23:24;;;;;;;35.38;20.35;;;30.40;72.30;;;;;;5093157;28;20169;-77
2021/03/03 10:26:01;;;;;;;44.97;20.98;;;31.10;70.70;;;;;;5094198;28;20154;-77
2021/03/03 10:28:28;;;;;;;45.03;22.77;;;31.40;68.80;;;;;;5094070;28;20662;-77
2021/03/03 10:30:58;;;;;;;45.17;21.77;;;31.60;69.40;;;;;;5089274;28;20173;-79
2021/03/03 10:33:31;;;;;;;36.25;20.52;;;31.30;70.10;;;;;;5091862;28;20197;-78
2021/03/03 10:36:02;;;;;;;40.28;19.23;;;31.20;69.80;;;;;;5094010;28;20170;-77
2021/03/03 10:38:29;;;;;;;29.42;19.80;;;30.70;71.10;;;;;;5093105;28;20158;-77
2021/03/03 10:40:58;;;;;;;49.53;19.30;;;30.60;72.10;;;;;;5082657;28;20165;-78
2021/03/03 10:43:26;;;;;;;35.50;19.73;;;31.30;70.90;;;;;;5093740;28;20182;-78
2021/03/03 10:46:27;;;;;;;41.90;20.85;;;31.90;70.00;;;;;;5092086;28;20174;-78
2021/03/03 10:48:55;;;;;;;35.03;19.23;;;31.80;68.90;;;;;;5014623;28;20195;-78
2021/03/03 10:51:34;;;;;;;37.67;19.40;;;31.50;71.30;;;;;;5077809;28;20191;-78
2021/03/03 10:54:00;;;;;;;39.00;20.48;;;31.40;70.50;;;;;;5073041;28;20201;-78
2021/03/03 10:56:29;;;;;;;42.17;20.77;;;31.80;69.20;;;;;;5073167;28;20159;-78
2021/03/03 10:59:00;;;;;;;32.08;18.48;;;31.50;69.10;;;;;;5073365;28;20173;-78
2021/03/03 11:01:53;;;;;;;34.67;20.55;;;30.80;69.80;;;;;;5054470;28;20162;-79
2021/03/03 11:04:19;;;;;;;33.47;20.85;;;30.80;70.30;;;;;;5073384;28;20166;-78
2021/03/03 11:06:44;;;;;;;34.13;19.63;;;31.20;69.30;;;;;;5055368;28;20185;-79
2021/03/03 11:09:32;;;;;;;29.77;19.63;;;30.60;70.60;;;;;;5072661;28;20167;-78
2021/03/03 11:11:58;;;;;;;30.35;18.77;;;31.20;69.70;;;;;;5092703;28;20166;-77
2021/03/03 11:14:25;;;;;;;38.20;19.17;;;31.70;69.40;;;;;;5093246;28;20190;-77
2021/03/03 11:16:52;;;;;;;48.83;21.00;;;31.20;69.40;;;;;;5092882;28;20168;-77
2021/03/03 11:19:18;;;;;;;39.33;20.20;;;31.20;68.40;;;;;;5092878;28;20174;-77
2021/03/03 11:21:44;;;;;;;38.00;20.13;;;31.00;70.10;;;;;;5093417;28;20173;-77
2021/03/03 11:24:10;;;;;;;44.78;20.15;;;31.50;69.60;;;;;;5092302;28;20162;-77
2021/03/03 11:26:37;;;;;;;33.40;19.15;;;31.50;69.60;;;;;;5087316;28;20162;-79
2021/03/03 11:29:04;;;;;;;31.60;18.92;;;31.10;68.90;;;;;;5092918;28;20189;-76
2021/03/03 11:31:29;;;;;;;34.67;18.38;;;31.30;68.80;;;;;;5074974;28;20166;-77
2021/03/03 11:33:55;;;;;;;34.20;19.08;;;31.30;68.50;;;;;;5058003;28;20208;-76
2021/03/03 11:36:21;;;;;;;27.08;17.52;;;31.40;69.50;;;;;;5075253;28;20169;-76
2021/03/03 11:38:49;;;;;;;31.13;17.10;;;31.80;68.30;;;;;;5093103;28;20159;-78
2021/03/03 11:41:14;;;;;;;35.95;17.15;;;31.60;69.00;;;;;;5085869;28;20196;-78
2021/03/03 11:43:40;;;;;;;34.20;17.98;;;31.30;69.00;;;;;;5092648;28;20618;-77
2021/03/03 11:46:07;;;;;;;28.52;15.80;;;31.50;68.90;;;;;;5094771;28;20170;-77
2021/03/03 11:48:35;;;;;;;24.15;15.95;;;31.70;68.60;;;;;;5097204;28;20169;-76
2021/03/03 11:51:01;;;;;;;33.60;15.68;;;31.10;69.30;;;;;;5095940;28;20170;-77
2021/03/03 11:53:27;;;;;;;27.23;14.52;;;30.60;70.80;;;;;;5097048;28;20280;-76
2021/03/03 11:55:52;;;;;;;30.20;16.25;;;30.30;70.40;;;;;;5078864;28;20606;-77
2021/03/03 11:58:18;;;;;;;35.75;16.58;;;30.30;70.70;;;;;;5097057;28;20200;-76
2021/03/03 12:00:44;;;;;;;31.23;16.08;;;30.50;71.50;;;;;;5097205;28;20169;-76
2021/03/03 12:03:11;;;;;;;35.05;17.15;;;30.40;70.80;;;;;;5097393;28;20161;-77
2021/03/03 12:05:37;;;;;;;36.75;15.38;;;30.20;70.50;;;;;;5096981;28;20664;-75
2021/03/03 12:08:06;;;;;;;38.55;15.73;;;30.50;71.50;;;;;;5097089;28;20158;-75
2021/03/03 12:10:35;;;;;;;32.17;17.05;;;30.10;72.30;;;;;;5096371;28;20166;-75
2021/03/03 12:13:01;;;;;;;31.23;16.40;;;30.40;71.60;;;;;;5096898;28;20196;-75
2021/03/03 12:15:27;;;;;;;33.22;15.30;;;30.20;72.20;;;;;;5096819;28;20158;-75
2021/03/03 12:17:53;;;;;;;33.95;16.95;;;29.90;74.40;;;;;;5097059;28;20253;-75
2021/03/03 12:20:19;;;;;;;30.38;15.38;;;30.00;73.50;;;;;;5096699;28;20657;-76
2021/03/03 12:22:45;;;;;;;34.30;16.90;;;29.80;73.90;;;;;;5096567;28;20162;-77
2021/03/03 12:25:12;;;;;;;32.63;17.00;;;30.10;73.00;;;;;;5096908;28;20169;-77
2021/03/03 12:27:37;;;;;;;30.42;17.05;;;30.20;73.40;;;;;;5095372;28;20184;-77
2021/03/03 12:30:04;;;;;;;39.75;17.67;;;29.40;73.10;;;;;;5083932;28;20629;-75
2021/03/03 12:32:30;;;;;;;35.67;16.67;;;29.60;74.70;;;;;;5093116;28;20162;-75
2021/03/03 12:34:57;;;;;;;33.70;15.85;;;28.90;76.30;;;;;;5096328;28;20247;-76
2021/03/03 12:37:23;;;;;;;38.72;17.65;;;28.50;76.60;;;;;;5095908;28;20177;-76
2021/03/03 12:39:50;;;;;;;34.72;17.42;;;27.60;78.20;;;;;;5096560;28;20178;-77
2021/03/03 12:42:15;;;;;;;44.78;18.33;;;28.00;77.30;;;;;;5078279;28;20262;-76